Time;durP1;ratioP1;P1;durP2;ratioP2;P2;SDS_P1;SDS_P2;PMS_P1;PMS_P2;Temp;Humidity;BMP_temperature;BMP_pressure;BME280_temperature;BME280_humidity;BME280_pressure;Samples;Min_cycle;Max_cycle;Signal;HPM_P1;HPM_P2
2021/12/28 00:00:09;;;;;;;9.83;2.40;;;;;;;;;;4989566;28;20275;-74
2021/12/28 00:02:34;;;;;;;9.73;2.63;;;;;;;;;;4987469;28;20184;-74
2021/12/28 00:04:59;;;;;;;13.53;2.90;;;;;;;;;;4988027;28;20177;-74
2021/12/28 00:07:24;;;;;;;13.37;2.90;;;;;;;;;;4990241;28;20338;-74
2021/12/28 00:09:49;;;;;;;12.40;3.10;;;;;;;;;;4990421;28;20245;-75
2021/12/28 00:12:15;;;;;;;10.87;2.60;;;;;;;;;;4988807;28;20270;-74
2021/12/28 00:14:49;;;;;;;11.87;4.37;;;;;;;;;;4987232;28;20180;-74
2021/12/28 00:19:58;;;;;;;16.87;2.70;;;;;;;;;;4990539;28;20187;-74
2021/12/28 00:22:23;;;;;;;9.90;2.93;;;;;;;;;;4990656;28;20179;-74
2021/12/28 00:24:49;;;;;;;11.50;4.27;;;;;;;;;;4989924;28;20183;-74
2021/12/28 00:27:14;;;;;;;12.20;3.07;;;;;;;;;;4989744;28;20200;-74
2021/12/28 00:29:39;;;;;;;8.63;2.53;;;;;;;;;;4989856;28;20215;-74
2021/12/28 00:32:04;;;;;;;9.13;2.87;;;;;;;;;;4987627;28;20176;-74
2021/12/28 00:34:31;;;;;;;8.70;2.57;;;;;;;;;;4987978;28;20274;-74
2021/12/28 00:36:56;;;;;;;8.50;2.43;;;;;;;;;;4990324;28;20235;-75
2021/12/28 00:39:22;;;;;;;10.98;3.22;;;;;;;;;;4990173;28;20239;-74
2021/12/28 00:41:47;;;;;;;11.60;3.53;;;;;;;;;;4988703;28;20206;-74
2021/12/28 00:44:14;;;;;;;7.20;3.03;;;;;;;;;;4989770;28;20496;-74
2021/12/28 00:46:39;;;;;;;8.10;2.90;;;;;;;;;;4986939;28;20200;-74
2021/12/28 00:49:05;;;;;;;11.43;2.90;;;;;;;;;;4988981;28;20248;-74
2021/12/28 00:51:30;;;;;;;13.50;2.70;;;;;;;;;;4989551;28;20204;-74
2021/12/28 00:53:56;;;;;;;13.53;3.10;;;;;;;;;;4989467;28;20245;-74
2021/12/28 00:56:21;;;;;;;11.37;3.30;;;;;;;;;;4989232;28;20180;-74
2021/12/28 00:58:46;;;;;;;11.70;3.13;;;;;;;;;;4988559;28;20194;-74
2021/12/28 01:01:11;;;;;;;9.77;3.33;;;;;;;;;;4992182;28;20192;-74
2021/12/28 01:03:38;;;;;;;17.93;5.17;;;;;;;;;;4990855;28;20188;-74
2021/12/28 01:06:04;;;;;;;11.50;3.50;;;;;;;;;;4994071;28;20219;-74
2021/12/28 01:08:29;;;;;;;13.63;5.00;;;;;;;;;;4992074;28;20182;-74
2021/12/28 01:10:55;;;;;;;11.50;3.70;;;;;;;;;;4993915;28;20187;-74
2021/12/28 01:13:20;;;;;;;11.73;3.50;;;;;;;;;;4994289;28;20184;-74
2021/12/28 01:15:46;;;;;;;9.73;3.23;;;;;;;;;;4992765;28;20183;-74
2021/12/28 01:18:12;;;;;;;13.63;4.47;;;;;;;;;;5007091;28;20187;-74
2021/12/28 01:20:38;;;;;;;12.97;3.53;;;;;;;;;;4991834;28;20259;-74
2021/12/28 01:23:03;;;;;;;15.00;4.60;;;;;;;;;;4992711;28;20188;-74
2021/12/28 01:25:29;;;;;;;17.10;4.37;;;;;;;;;;4990139;28;20185;-74
2021/12/28 01:27:54;;;;;;;11.30;3.90;;;;;;;;;;4991529;28;20236;-74
2021/12/28 01:30:20;;;;;;;12.93;3.50;;;;;;;;;;4993276;28;20179;-74
2021/12/28 01:32:46;;;;;;;16.47;3.60;;;;;;;;;;4991933;28;20177;-74
2021/12/28 01:35:12;;;;;;;17.03;3.63;;;;;;;;;;4992448;28;20252;-74
2021/12/28 01:37:38;;;;;;;13.90;3.83;;;;;;;;;;4991672;28;20186;-74
2021/12/28 01:40:04;;;;;;;13.60;3.17;;;;;;;;;;4992127;28;20184;-74
2021/12/28 01:42:30;;;;;;;10.60;3.33;;;;;;;;;;4991021;28;20212;-74
2021/12/28 01:44:55;;;;;;;10.10;3.60;;;;;;;;;;4992433;28;20232;-74
2021/12/28 01:47:21;;;;;;;13.40;4.20;;;;;;;;;;4993219;28;20192;-74
2021/12/28 01:49:46;;;;;;;9.80;3.60;;;;;;;;;;4991671;28;20267;-74
2021/12/28 01:52:12;;;;;;;11.93;3.80;;;;;;;;;;4988823;28;20182;-74
2021/12/28 01:54:37;;;;;;;10.33;3.50;;;;;;;;;;4990509;28;20273;-74
2021/12/28 01:57:02;;;;;;;9.83;2.77;;;;;;;;;;4991580;28;20252;-74
2021/12/28 01:59:30;;;;;;;11.50;3.10;;;;;;;;;;4992530;28;20177;-74
2021/12/28 02:01:56;;;;;;;11.20;3.00;;;;;;;;;;4991608;28;20188;-74
2021/12/28 02:04:25;;;;;;;8.87;3.13;;;;;;;;;;4993229;28;20184;-74
2021/12/28 02:06:51;;;;;;;14.17;3.70;;;;;;;;;;4991286;28;20252;-74
2021/12/28 02:09:17;;;;;;;10.43;3.43;;;;;;;;;;4991039;28;20272;-74
2021/12/28 02:11:43;;;;;;;10.50;2.60;;;;;;;;;;4989906;28;20180;-74
2021/12/28 02:14:08;;;;;;;13.23;3.03;;;;;;;;;;4992195;28;20206;-74
2021/12/28 02:16:34;;;;;;;12.07;2.87;;;;;;;;;;4991568;28;20278;-74
2021/12/28 02:19:02;;;;;;;7.37;2.53;;;;;;;;;;4992618;28;20184;-74
2021/12/28 02:21:31;;;;;;;12.63;3.00;;;;;;;;;;4992079;28;20173;-74
2021/12/28 02:23:56;;;;;;;12.13;3.40;;;;;;;;;;4990491;28;20183;-74
2021/12/28 02:26:21;;;;;;;15.27;3.00;;;;;;;;;;4990301;28;20205;-74
2021/12/28 02:28:46;;;;;;;12.70;3.20;;;;;;;;;;4991735;28;20176;-74
2021/12/28 02:31:11;;;;;;;9.40;2.80;;;;;;;;;;4989744;28;20215;-74
2021/12/28 02:33:37;;;;;;;11.37;3.30;;;;;;;;;;4991239;28;20176;-74
2021/12/28 02:36:03;;;;;;;10.70;3.10;;;;;;;;;;4990726;28;20185;-74
2021/12/28 02:38:29;;;;;;;7.37;2.60;;;;;;;;;;4991482;28;20449;-74
2021/12/28 02:40:55;;;;;;;12.97;2.60;;;;;;;;;;4990175;28;20195;-74
2021/12/28 02:43:20;;;;;;;11.47;2.33;;;;;;;;;;4991278;28;20204;-74
2021/12/28 02:45:57;;;;;;;11.53;2.70;;;;;;;;;;4989363;28;20445;-74
2021/12/28 02:48:25;;;;;;;11.63;3.20;;;;;;;;;;4991869;28;20180;-74
2021/12/28 02:50:52;;;;;;;10.17;2.80;;;;;;;;;;4990873;28;20256;-74
2021/12/28 02:53:18;;;;;;;6.60;2.57;;;;;;;;;;4990254;28;20176;-74
2021/12/28 02:55:44;;;;;;;10.07;2.63;;;;;;;;;;4991162;28;20270;-74
2021/12/28 02:58:11;;;;;;;6.03;2.50;;;;;;;;;;4990213;28;20184;-74
2021/12/28 03:00:36;;;;;;;7.33;2.90;;;;;;;;;;4989998;28;20219;-75
2021/12/28 03:03:06;;;;;;;7.87;2.30;;;;;;;;;;5006420;28;20197;-74
2021/12/28 03:05:32;;;;;;;11.50;2.30;;;;;;;;;;4990730;28;20182;-74
2021/12/28 03:07:57;;;;;;;9.27;2.27;;;;;;;;;;4991093;28;20200;-72
2021/12/28 03:10:23;;;;;;;6.90;2.23;;;;;;;;;;4989657;28;20178;-72
2021/12/28 03:12:48;;;;;;;9.97;2.37;;;;;;;;;;4991308;28;20324;-72
2021/12/28 03:15:13;;;;;;;11.03;2.83;;;;;;;;;;4988896;28;20181;-72
2021/12/28 03:17:39;;;;;;;8.57;2.60;;;;;;;;;;4990139;28;20184;-72
2021/12/28 03:20:05;;;;;;;14.53;2.57;;;;;;;;;;4990235;28;20272;-72
2021/12/28 03:22:35;;;;;;;7.93;2.30;;;;;;;;;;4989581;28;20263;-72
2021/12/28 03:25:00;;;;;;;5.87;2.30;;;;;;;;;;4990646;28;20184;-72
2021/12/28 03:27:25;;;;;;;10.97;2.53;;;;;;;;;;4989092;28;20284;-72
2021/12/28 03:29:51;;;;;;;13.73;3.10;;;;;;;;;;4992868;28;20176;-72
2021/12/28 03:32:17;;;;;;;11.23;2.43;;;;;;;;;;4988719;28;20173;-72
2021/12/28 03:34:42;;;;;;;6.87;2.53;;;;;;;;;;4990506;28;20258;-72
2021/12/28 03:37:08;;;;;;;7.37;2.00;;;;;;;;;;4990044;28;20180;-72
2021/12/28 03:39:33;;;;;;;10.13;3.03;;;;;;;;;;4991317;28;20181;-72
2021/12/28 03:41:59;;;;;;;3.93;1.70;;;;;;;;;;4989623;28;20243;-72
2021/12/28 03:44:26;;;;;;;7.50;1.93;;;;;;;;;;4990419;28;20252;-72
2021/12/28 03:46:51;;;;;;;5.90;2.23;;;;;;;;;;4989728;28;20212;-72
2021/12/28 03:49:17;;;;;;;9.57;2.47;;;;;;;;;;4990009;28;20264;-72
2021/12/28 03:51:42;;;;;;;7.57;2.03;;;;;;;;;;4989111;28;20203;-72
2021/12/28 03:54:07;;;;;;;4.73;1.97;;;;;;;;;;4987698;28;20248;-72
2021/12/28 03:56:33;;;;;;;4.17;1.73;;;;;;;;;;4989642;28;20186;-71
2021/12/28 03:58:58;;;;;;;4.83;1.80;;;;;;;;;;4989569;28;20226;-71
2021/12/28 04:01:24;;;;;;;1.17;0.97;;;;;;;;;;4989136;28;20276;-72
2021/12/28 04:03:50;;;;;;;6.30;1.80;;;;;;;;;;4989307;28;20198;-72
2021/12/28 04:06:18;;;;;;;4.80;1.40;;;;;;;;;;4989398;28;20192;-72
2021/12/28 04:08:43;;;;;;;6.53;1.70;;;;;;;;;;4989713;28;20185;-72
2021/12/28 04:13:48;;;;;;;9.30;1.90;;;;;;;;;;4989951;28;20184;-72
2021/12/28 04:16:13;;;;;;;8.63;1.93;;;;;;;;;;4989445;28;20180;-71
2021/12/28 04:18:39;;;;;;;5.10;1.50;;;;;;;;;;4989577;28;20183;-72
2021/12/28 04:21:04;;;;;;;2.70;1.20;;;;;;;;;;4990133;28;20183;-72
2021/12/28 04:23:30;;;;;;;5.70;1.63;;;;;;;;;;4989124;28;20183;-72
2021/12/28 04:25:55;;;;;;;7.50;1.70;;;;;;;;;;4988889;28;20244;-72
2021/12/28 04:28:20;;;;;;;6.47;2.27;;;;;;;;;;4990261;28;20180;-72
2021/12/28 04:30:45;;;;;;;10.50;2.07;;;;;;;;;;4988521;28;20470;-72
2021/12/28 04:33:10;;;;;;;5.10;1.47;;;;;;;;;;4990401;28;20258;-72
2021/12/28 04:35:35;;;;;;;6.10;1.93;;;;;;;;;;4992438;28;20184;-74
2021/12/28 04:38:01;;;;;;;8.57;2.70;;;;;;;;;;4994827;28;20176;-74
2021/12/28 04:40:27;;;;;;;3.97;1.30;;;;;;;;;;4992974;28;20246;-74
2021/12/28 04:42:52;;;;;;;2.53;1.37;;;;;;;;;;4992774;28;20193;-74
2021/12/28 04:45:18;;;;;;;8.53;1.83;;;;;;;;;;4994034;28;20228;-74
2021/12/28 04:47:43;;;;;;;4.87;1.57;;;;;;;;;;4992537;28;20246;-74
2021/12/28 04:50:09;;;;;;;4.73;1.47;;;;;;;;;;4993496;28;20177;-74
2021/12/28 04:52:37;;;;;;;5.20;1.53;;;;;;;;;;4993242;28;20179;-74
2021/12/28 04:55:06;;;;;;;5.73;1.43;;;;;;;;;;4993345;28;20176;-75
2021/12/28 04:57:31;;;;;;;4.10;1.80;;;;;;;;;;4993051;28;20189;-74
2021/12/28 04:59:56;;;;;;;5.17;2.77;;;;;;;;;;4991948;28;20234;-74
2021/12/28 05:02:21;;;;;;;4.13;1.90;;;;;;;;;;4993873;28;20185;-74
2021/12/28 05:04:46;;;;;;;5.47;2.00;;;;;;;;;;4994013;28;20187;-74
2021/12/28 05:07:12;;;;;;;6.53;2.80;;;;;;;;;;4993516;28;20207;-74
2021/12/28 05:09:37;;;;;;;4.73;2.30;;;;;;;;;;4988824;28;20179;-75
2021/12/28 05:12:02;;;;;;;6.70;2.30;;;;;;;;;;4994299;28;20177;-74
2021/12/28 05:14:27;;;;;;;5.60;2.53;;;;;;;;;;4993171;28;20279;-74
2021/12/28 05:16:53;;;;;;;2.83;1.97;;;;;;;;;;4993215;28;20176;-74
2021/12/28 05:19:18;;;;;;;3.83;2.43;;;;;;;;;;4993618;28;20176;-74
2021/12/28 05:21:43;;;;;;;6.57;2.50;;;;;;;;;;4993482;28;20212;-74
2021/12/28 05:24:08;;;;;;;5.87;2.40;;;;;;;;;;4991264;28;20177;-74
2021/12/28 05:26:34;;;;;;;5.70;2.20;;;;;;;;;;4992525;28;20204;-74
2021/12/28 05:28:59;;;;;;;3.97;2.20;;;;;;;;;;4994529;28;20196;-74
2021/12/28 05:31:25;;;;;;;5.93;2.40;;;;;;;;;;4992281;28;20187;-74
2021/12/28 05:33:51;;;;;;;4.93;2.57;;;;;;;;;;4991554;28;20177;-74
2021/12/28 05:36:17;;;;;;;6.03;2.73;;;;;;;;;;4991323;28;20197;-75
2021/12/28 05:38:42;;;;;;;3.60;2.70;;;;;;;;;;4991366;28;20183;-74
2021/12/28 05:41:07;;;;;;;5.30;2.60;;;;;;;;;;4991466;28;20187;-74
2021/12/28 05:43:33;;;;;;;4.73;2.90;;;;;;;;;;4991809;28;20235;-75
2021/12/28 05:45:58;;;;;;;3.53;2.43;;;;;;;;;;4992306;28;20239;-74
2021/12/28 05:48:23;;;;;;;3.07;2.63;;;;;;;;;;4991475;28;20445;-74
2021/12/28 05:50:48;;;;;;;8.50;3.37;;;;;;;;;;4991874;28;20267;-74
2021/12/28 05:53:14;;;;;;;7.33;4.90;;;;;;;;;;4984427;28;20168;-74
2021/12/28 05:55:39;;;;;;;3.57;2.83;;;;;;;;;;4991204;28;20187;-74
2021/12/28 05:58:04;;;;;;;4.30;2.80;;;;;;;;;;4991458;28;20183;-75
2021/12/28 06:00:29;;;;;;;4.77;2.83;;;;;;;;;;4992420;28;20188;-74
2021/12/28 06:02:55;;;;;;;9.17;5.83;;;;;;;;;;4988859;28;20319;-74
2021/12/28 06:05:20;;;;;;;7.97;7.10;;;;;;;;;;4992095;28;20178;-75
2021/12/28 06:07:46;;;;;;;7.27;4.80;;;;;;;;;;4991726;28;21715;-74
2021/12/28 06:10:11;;;;;;;10.47;7.90;;;;;;;;;;4993080;28;20273;-74
2021/12/28 06:12:36;;;;;;;4.73;4.13;;;;;;;;;;4990477;28;20180;-74
2021/12/28 06:15:02;;;;;;;6.80;4.40;;;;;;;;;;4991355;28;20192;-74
2021/12/28 06:17:27;;;;;;;6.13;4.33;;;;;;;;;;4991201;28;20184;-74
2021/12/28 06:19:52;;;;;;;5.63;4.10;;;;;;;;;;4991122;28;20191;-74
2021/12/28 06:22:17;;;;;;;7.03;4.00;;;;;;;;;;4993664;28;20254;-74
2021/12/28 06:24:43;;;;;;;4.90;4.30;;;;;;;;;;4988421;28;20188;-74
2021/12/28 06:27:08;;;;;;;5.30;4.13;;;;;;;;;;4992312;28;20216;-74
2021/12/28 06:29:34;;;;;;;5.77;4.60;;;;;;;;;;4989923;28;20265;-75
2021/12/28 06:31:59;;;;;;;4.97;4.10;;;;;;;;;;4990509;28;20188;-75
2021/12/28 06:34:24;;;;;;;6.63;4.90;;;;;;;;;;4990468;28;20183;-74
2021/12/28 06:36:49;;;;;;;5.17;4.20;;;;;;;;;;4991454;28;20180;-74
2021/12/28 06:39:14;;;;;;;6.87;4.63;;;;;;;;;;4990454;28;20187;-75
2021/12/28 06:41:40;;;;;;;6.03;4.73;;;;;;;;;;4989376;28;20235;-74
2021/12/28 06:44:07;;;;;;;7.30;4.90;;;;;;;;;;4991606;28;20277;-75
2021/12/28 06:46:32;;;;;;;6.10;4.83;;;;;;;;;;4990588;28;20212;-74
2021/12/28 06:48:57;;;;;;;6.93;4.70;;;;;;;;;;4990680;28;20331;-74
2021/12/28 06:51:22;;;;;;;6.73;4.20;;;;;;;;;;4989828;28;20172;-74
2021/12/28 06:53:48;;;;;;;6.93;5.10;;;;;;;;;;4991406;28;20181;-74
2021/12/28 06:56:13;;;;;;;6.80;4.90;;;;;;;;;;4990105;28;20187;-74
2021/12/28 06:58:40;;;;;;;8.80;5.80;;;;;;;;;;4989900;28;20188;-74
2021/12/28 07:01:05;;;;;;;7.30;6.20;;;;;;;;;;4989800;28;20184;-74
2021/12/28 07:03:30;;;;;;;7.27;5.73;;;;;;;;;;4989443;28;20186;-74
2021/12/28 07:05:56;;;;;;;5.90;4.00;;;;;;;;;;4991285;28;20176;-74
2021/12/28 07:08:21;;;;;;;6.07;4.10;;;;;;;;;;4990543;28;20247;-75
2021/12/28 07:10:46;;;;;;;6.57;4.67;;;;;;;;;;4989638;28;20181;-74
2021/12/28 07:13:11;;;;;;;6.00;3.90;;;;;;;;;;4989109;28;20267;-75
2021/12/28 07:15:36;;;;;;;7.47;4.33;;;;;;;;;;4989994;28;20200;-74
2021/12/28 07:18:02;;;;;;;5.00;4.40;;;;;;;;;;4990348;28;20184;-74
2021/12/28 07:20:27;;;;;;;5.87;4.80;;;;;;;;;;4989004;28;20182;-74
2021/12/28 07:22:53;;;;;;;4.07;3.50;;;;;;;;;;4987484;28;20184;-74
2021/12/28 07:25:18;;;;;;;3.73;3.33;;;;;;;;;;4986221;28;20195;-75
2021/12/28 07:27:43;;;;;;;4.23;3.23;;;;;;;;;;4990862;28;20247;-75
2021/12/28 07:30:10;;;;;;;4.23;3.50;;;;;;;;;;4989638;28;20187;-74
2021/12/28 07:32:36;;;;;;;4.27;3.60;;;;;;;;;;5004485;28;20168;-74
2021/12/28 07:35:01;;;;;;;5.83;4.00;;;;;;;;;;4989801;28;20177;-74
2021/12/28 07:37:26;;;;;;;5.47;4.40;;;;;;;;;;4988470;28;20184;-74
2021/12/28 07:39:53;;;;;;;6.50;4.10;;;;;;;;;;4990700;28;20183;-74
2021/12/28 07:42:18;;;;;;;3.67;3.17;;;;;;;;;;4990297;28;20204;-74
2021/12/28 07:44:43;;;;;;;3.60;2.97;;;;;;;;;;4986152;28;20344;-74
2021/12/28 07:47:08;;;;;;;4.07;3.20;;;;;;;;;;4992484;28;20231;-74
2021/12/28 07:49:34;;;;;;;3.50;2.90;;;;;;;;;;4989877;28;20175;-75
2021/12/28 07:51:59;;;;;;;4.00;3.20;;;;;;;;;;4990403;28;20232;-75
2021/12/28 07:54:24;;;;;;;4.37;2.70;;;;;;;;;;4991134;28;20200;-74
2021/12/28 07:56:50;;;;;;;3.73;3.17;;;;;;;;;;4990236;28;20188;-74
2021/12/28 07:59:15;;;;;;;4.40;3.10;;;;;;;;;;4993546;28;20184;-74
2021/12/28 08:01:40;;;;;;;4.60;3.07;;;;;;;;;;4989431;28;20180;-75
2021/12/28 08:04:05;;;;;;;4.10;2.87;;;;;;;;;;4985493;28;20176;-74
2021/12/28 08:06:30;;;;;;;4.23;2.90;;;;;;;;;;4991244;28;20215;-74
2021/12/28 08:08:56;;;;;;;4.13;2.80;;;;;;;;;;4990191;28;20182;-74
2021/12/28 08:11:22;;;;;;;7.90;4.73;;;;;;;;;;4989090;28;20172;-75
2021/12/28 08:13:47;;;;;;;3.60;2.50;;;;;;;;;;4989691;28;20234;-75
2021/12/28 08:16:15;;;;;;;5.20;3.43;;;;;;;;;;4992336;28;20179;-74
2021/12/28 08:18:40;;;;;;;2.90;2.60;;;;;;;;;;4988769;28;20205;-74
2021/12/28 08:21:05;;;;;;;3.40;2.73;;;;;;;;;;4987347;28;20176;-75
2021/12/28 08:23:30;;;;;;;2.90;2.43;;;;;;;;;;4988184;28;20187;-74
2021/12/28 08:25:56;;;;;;;2.57;1.93;;;;;;;;;;4989660;28;20211;-74
2021/12/28 08:28:21;;;;;;;3.00;2.70;;;;;;;;;;4989543;28;20343;-74
2021/12/28 08:30:46;;;;;;;2.70;2.00;;;;;;;;;;4987437;28;20185;-74
2021/12/28 08:33:11;;;;;;;2.13;1.93;;;;;;;;;;4989382;28;20186;-75
2021/12/28 08:35:39;;;;;;;2.40;1.83;;;;;;;;;;4992989;28;20244;-74
2021/12/28 08:38:05;;;;;;;1.87;1.70;;;;;;;;;;4989099;28;20560;-74
2021/12/28 08:40:30;;;;;;;2.70;1.80;;;;;;;;;;4987282;28;20203;-74
2021/12/28 08:42:56;;;;;;;2.23;1.97;;;;;;;;;;4987134;28;20473;-75
2021/12/28 08:45:21;;;;;;;2.10;1.57;;;;;;;;;;4989268;28;20222;-74
2021/12/28 08:47:47;;;;;;;1.40;1.30;;;;;;;;;;4989882;28;20248;-74
2021/12/28 08:50:13;;;;;;;2.60;1.63;;;;;;;;;;4985571;28;20236;-74
2021/12/28 08:52:38;;;;;;;1.00;1.00;;;;;;;;;;4991405;28;20215;-74
2021/12/28 08:55:04;;;;;;;1.13;1.03;;;;;;;;;;4989892;28;20504;-74
2021/12/28 08:57:29;;;;;;;0.73;0.73;;;;;;;;;;4985856;28;20189;-74
2021/12/28 08:59:55;;;;;;;0.90;0.90;;;;;;;;;;4988186;28;20177;-75
2021/12/28 09:02:20;;;;;;;1.30;0.90;;;;;;;;;;4987882;28;20184;-74
2021/12/28 09:04:46;;;;;;;1.20;0.90;;;;;;;;;;4988721;28;20521;-74
2021/12/28 09:07:12;;;;;;;2.17;0.97;;;;;;;;;;4989126;28;20220;-75
2021/12/28 09:09:37;;;;;;;2.50;0.60;;;;;;;;;;4988826;28;20190;-75
2021/12/28 09:12:03;;;;;;;0.77;0.77;;;;;;;;;;4988862;28;20172;-75
2021/12/28 09:14:28;;;;;;;0.83;0.73;;;;;;;;;;4986557;28;20184;-74
2021/12/28 09:16:53;;;;;;;0.50;0.50;;;;;;;;;;4990858;28;20180;-74
2021/12/28 09:19:19;;;;;;;0.73;0.73;;;;;;;;;;4987271;28;20182;-74
2021/12/28 09:21:44;;;;;;;0.87;0.80;;;;;;;;;;4987013;28;20182;-74
2021/12/28 09:24:09;;;;;;;0.50;0.50;;;;;;;;;;4991890;28;20180;-74
2021/12/28 09:26:34;;;;;;;1.43;1.33;;;;;;;;;;4993622;28;20209;-74
2021/12/28 09:29:00;;;;;;;3.03;0.80;;;;;;;;;;4992617;28;20183;-75
2021/12/28 09:31:25;;;;;;;0.80;0.80;;;;;;;;;;4992126;28;20237;-74
2021/12/28 09:33:50;;;;;;;0.67;0.60;;;;;;;;;;4992530;28;20167;-74
2021/12/28 09:36:16;;;;;;;0.70;0.70;;;;;;;;;;4989879;28;20182;-75
2021/12/28 09:38:45;;;;;;;0.60;0.60;;;;;;;;;;4993229;28;20214;-75
2021/12/28 09:41:11;;;;;;;1.07;0.97;;;;;;;;;;4991764;28;20179;-74
2021/12/28 09:43:36;;;;;;;0.80;0.80;;;;;;;;;;4992037;28;20209;-74
2021/12/28 09:46:02;;;;;;;0.90;0.90;;;;;;;;;;4992048;28;20266;-74
2021/12/28 09:48:27;;;;;;;0.80;0.80;;;;;;;;;;4991282;28;20184;-75
2021/12/28 09:50:52;;;;;;;0.70;0.70;;;;;;;;;;4992680;28;20173;-75
2021/12/28 09:53:17;;;;;;;1.43;0.90;;;;;;;;;;4991926;28;20271;-75
2021/12/28 09:55:42;;;;;;;0.90;0.90;;;;;;;;;;4991086;28;20265;-74
2021/12/28 09:58:08;;;;;;;0.60;0.60;;;;;;;;;;4990639;28;20669;-74
2021/12/28 10:00:33;;;;;;;0.93;0.93;;;;;;;;;;4993214;28;20187;-75
2021/12/28 10:02:58;;;;;;;1.00;0.90;;;;;;;;;;4991393;28;20186;-75
2021/12/28 10:05:25;;;;;;;0.70;0.70;;;;;;;;;;4991413;28;20176;-74
2021/12/28 10:07:56;;;;;;;0.73;0.73;;;;;;;;;;4991427;28;20209;-74
2021/12/28 10:10:22;;;;;;;0.63;0.63;;;;;;;;;;4988720;28;20181;-74
2021/12/28 10:12:52;;;;;;;1.20;1.10;;;;;;;;;;4991322;28;20172;-74
2021/12/28 10:15:19;;;;;;;0.80;0.67;;;;;;;;;;4991088;28;20629;-74
2021/12/28 10:17:46;;;;;;;0.50;0.50;;;;;;;;;;4993426;28;20264;-75
2021/12/28 10:20:31;;;;;;;0.77;0.70;;;;;;;;;;4987285;28;20236;-74
2021/12/28 10:22:58;;;;;;;1.00;1.00;;;;;;;;;;4990630;28;20187;-74
2021/12/28 10:25:28;;;;;;;0.37;0.37;;;;;;;;;;4991118;28;20181;-74
2021/12/28 10:27:57;;;;;;;0.67;0.67;;;;;;;;;;4990231;28;20291;-74
2021/12/28 10:30:27;;;;;;;1.23;0.50;;;;;;;;;;4991100;28;20178;-74
2021/12/28 10:32:54;;;;;;;0.53;0.53;;;;;;;;;;4992372;28;20268;-75
2021/12/28 10:35:22;;;;;;;0.80;0.80;;;;;;;;;;4992230;28;20184;-74
2021/12/28 10:37:49;;;;;;;0.60;0.60;;;;;;;;;;4991181;28;20180;-75
2021/12/28 10:40:19;;;;;;;0.80;0.80;;;;;;;;;;4992377;28;20184;-74
2021/12/28 10:42:53;;;;;;;0.93;0.83;;;;;;;;;;4990023;28;20207;-74
2021/12/28 10:45:18;;;;;;;0.97;0.97;;;;;;;;;;4988215;28;20312;-75
2021/12/28 10:47:43;;;;;;;5.97;3.13;;;;;;;;;;4990663;28;20300;-74
2021/12/28 10:50:22;;;;;;;40.93;18.93;;;;;;;;;;4992688;28;20176;-75
2021/12/28 10:52:59;;;;;;;5.33;4.80;;;;;;;;;;4990550;28;20250;-75
2021/12/28 10:55:25;;;;;;;1.87;1.10;;;;;;;;;;4990011;28;20173;-74
2021/12/28 10:57:51;;;;;;;1.10;1.00;;;;;;;;;;4989696;28;20187;-74
2021/12/28 11:00:25;;;;;;;2.70;1.00;;;;;;;;;;4988311;28;20209;-74
2021/12/28 11:03:17;;;;;;;1.40;1.30;;;;;;;;;;4987947;28;20195;-75
2021/12/28 11:05:49;;;;;;;1.57;0.90;;;;;;;;;;4996646;28;20197;-74
2021/12/28 11:08:15;;;;;;;0.80;0.80;;;;;;;;;;5011784;28;20202;-75
2021/12/28 11:11:01;;;;;;;0.90;0.90;;;;;;;;;;4994586;28;20187;-74
2021/12/28 11:13:28;;;;;;;0.73;0.73;;;;;;;;;;5003884;28;20187;-74
2021/12/28 11:15:53;;;;;;;1.57;0.60;;;;;;;;;;4994776;28;20265;-74
2021/12/28 11:18:22;;;;;;;1.70;1.43;;;;;;;;;;4990937;28;20187;-75
2021/12/28 11:20:50;;;;;;;2.40;1.93;;;;;;;;;;4990167;28;20189;-75
2021/12/28 11:23:18;;;;;;;0.57;0.57;;;;;;;;;;4989720;28;20187;-74
2021/12/28 11:25:43;;;;;;;0.70;0.70;;;;;;;;;;4988172;28;20190;-74
2021/12/28 11:28:10;;;;;;;1.10;1.10;;;;;;;;;;4982703;28;20295;-75
2021/12/28 11:30:35;;;;;;;1.93;0.73;;;;;;;;;;4990329;28;20176;-74
2021/12/28 11:33:07;;;;;;;0.70;0.70;;;;;;;;;;4989524;28;20179;-74
2021/12/28 11:35:33;;;;;;;0.80;0.80;;;;;;;;;;4990263;28;20200;-74
2021/12/28 11:37:59;;;;;;;1.23;1.13;;;;;;;;;;4990189;28;20185;-74
2021/12/28 11:40:24;;;;;;;1.40;1.30;;;;;;;;;;4989396;28;20187;-74
2021/12/28 11:42:50;;;;;;;0.83;0.83;;;;;;;;;;4988379;28;20197;-74
2021/12/28 11:45:15;;;;;;;3.30;1.50;;;;;;;;;;4989577;28;20223;-74
2021/12/28 11:47:40;;;;;;;7.50;4.93;;;;;;;;;;4994180;28;20209;-74
2021/12/28 11:50:08;;;;;;;3.00;2.57;;;;;;;;;;4988531;28;20189;-75
2021/12/28 11:52:34;;;;;;;19.17;11.57;;;;;;;;;;4991165;28;20199;-75
2021/12/28 11:55:00;;;;;;;11.80;6.43;;;;;;;;;;4991027;28;20179;-74
2021/12/28 11:57:26;;;;;;;3.50;2.60;;;;;;;;;;4990567;28;20186;-74
2021/12/28 12:00:05;;;;;;;5.73;5.00;;;;;;;;;;5005281;28;20212;-75
2021/12/28 12:02:37;;;;;;;4.07;3.67;;;;;;;;;;4985688;28;20183;-74
2021/12/28 12:05:12;;;;;;;1.50;1.40;;;;;;;;;;4995464;28;20190;-74
2021/12/28 12:07:39;;;;;;;0.73;0.73;;;;;;;;;;4995607;28;20211;-74
2021/12/28 12:10:06;;;;;;;1.90;1.80;;;;;;;;;;4990870;28;20186;-75
2021/12/28 12:12:35;;;;;;;0.37;0.37;;;;;;;;;;4991031;28;20179;-75
2021/12/28 12:15:03;;;;;;;2.73;2.53;;;;;;;;;;4994527;28;20193;-74
2021/12/28 12:17:28;;;;;;;9.43;8.43;;;;;;;;;;4988819;28;20277;-75
2021/12/28 12:20:12;;;;;;;2.37;2.17;;;;;;;;;;4991219;28;20253;-74
2021/12/28 12:22:39;;;;;;;1.00;1.00;;;;;;;;;;4989368;28;20186;-74
2021/12/28 12:25:06;;;;;;;1.03;0.97;;;;;;;;;;4984431;28;20176;-74
2021/12/28 12:27:50;;;;;;;1.27;1.17;;;;;;;;;;4990520;28;20212;-74
2021/12/28 12:30:18;;;;;;;3.37;3.13;;;;;;;;;;5002536;28;20202;-74
2021/12/28 12:32:56;;;;;;;0.80;0.80;;;;;;;;;;5000996;28;20245;-74
2021/12/28 12:35:40;;;;;;;1.00;0.80;;;;;;;;;;4995134;28;20197;-74
2021/12/28 12:38:14;;;;;;;1.10;0.97;;;;;;;;;;5006862;28;20185;-74
2021/12/28 12:40:50;;;;;;;0.97;0.70;;;;;;;;;;5000412;28;20185;-75
2021/12/28 12:43:15;;;;;;;0.40;0.40;;;;;;;;;;4984397;28;20275;-75
2021/12/28 12:45:52;;;;;;;2.03;1.57;;;;;;;;;;4999598;28;20308;-74
2021/12/28 12:48:36;;;;;;;1.63;1.20;;;;;;;;;;5005435;28;20189;-74
2021/12/28 12:51:19;;;;;;;2.70;1.60;;;;;;;;;;4992228;28;20272;-74
2021/12/28 12:53:53;;;;;;;1.47;1.20;;;;;;;;;;5007943;28;20181;-74
2021/12/28 12:56:19;;;;;;;2.30;0.83;;;;;;;;;;4998070;28;20176;-74
2021/12/28 12:58:46;;;;;;;1.63;1.50;;;;;;;;;;4996065;28;20463;-75
2021/12/28 13:01:26;;;;;;;3.07;1.80;;;;;;;;;;4992369;28;20190;-74
2021/12/28 13:03:55;;;;;;;2.73;1.30;;;;;;;;;;4994386;28;20184;-74
2021/12/28 13:06:39;;;;;;;1.43;1.10;;;;;;;;;;5007005;28;20218;-74
2021/12/28 13:09:11;;;;;;;2.80;1.83;;;;;;;;;;4994178;28;20290;-75
2021/12/28 13:11:37;;;;;;;3.30;1.30;;;;;;;;;;5008931;28;20208;-75
2021/12/28 13:14:02;;;;;;;1.57;1.00;;;;;;;;;;4992176;28;20187;-74
2021/12/28 13:16:28;;;;;;;2.37;1.23;;;;;;;;;;4994080;28;20191;-75
2021/12/28 13:19:07;;;;;;;3.50;1.27;;;;;;;;;;4997703;28;20186;-75
2021/12/28 13:21:32;;;;;;;1.53;1.10;;;;;;;;;;4987639;28;20237;-74
2021/12/28 13:24:11;;;;;;;2.00;1.20;;;;;;;;;;4992403;28;20211;-74
2021/12/28 13:26:42;;;;;;;4.53;1.40;;;;;;;;;;4992942;28;20205;-74
2021/12/28 13:29:08;;;;;;;1.17;0.97;;;;;;;;;;4993965;28;20180;-75
2021/12/28 13:31:33;;;;;;;2.43;0.93;;;;;;;;;;4988226;28;20191;-75
2021/12/28 13:34:00;;;;;;;1.20;1.10;;;;;;;;;;4986966;28;20186;-74
2021/12/28 13:36:27;;;;;;;3.13;1.30;;;;;;;;;;4991841;28;20180;-74
2021/12/28 13:39:02;;;;;;;1.97;1.50;;;;;;;;;;4991614;28;20197;-74
2021/12/28 13:41:27;;;;;;;3.97;2.07;;;;;;;;;;4992262;28;20607;-75
2021/12/28 13:44:01;;;;;;;1.67;0.70;;;;;;;;;;4999187;28;20209;-75
2021/12/28 13:46:26;;;;;;;1.33;0.90;;;;;;;;;;4992293;28;20228;-74
2021/12/28 13:48:51;;;;;;;1.87;0.90;;;;;;;;;;4991254;28;20180;-74
2021/12/28 13:51:24;;;;;;;0.70;0.70;;;;;;;;;;4992218;28;20181;-75
2021/12/28 13:53:53;;;;;;;2.27;0.83;;;;;;;;;;4991672;28;20178;-75
2021/12/28 13:56:20;;;;;;;0.77;0.70;;;;;;;;;;4992233;28;20182;-74
2021/12/28 13:58:47;;;;;;;3.83;1.00;;;;;;;;;;4994922;28;20185;-74
2021/12/28 14:01:17;;;;;;;1.10;0.70;;;;;;;;;;4991125;28;20189;-74
2021/12/28 14:03:54;;;;;;;2.23;0.90;;;;;;;;;;4991110;28;20228;-74
2021/12/28 14:06:19;;;;;;;2.23;0.97;;;;;;;;;;4985989;28;20201;-74
2021/12/28 14:08:45;;;;;;;1.07;0.60;;;;;;;;;;4992459;28;20187;-75
2021/12/28 14:11:10;;;;;;;1.87;0.97;;;;;;;;;;4992503;28;20178;-74
2021/12/28 14:13:38;;;;;;;0.70;0.70;;;;;;;;;;4993760;28;20184;-75
2021/12/28 14:16:10;;;;;;;0.67;0.67;;;;;;;;;;4992162;28;20186;-74
2021/12/28 14:18:48;;;;;;;0.97;0.70;;;;;;;;;;4991036;28;20270;-74
2021/12/28 14:21:14;;;;;;;1.13;0.93;;;;;;;;;;4989767;28;20207;-75
2021/12/28 14:23:39;;;;;;;0.77;0.47;;;;;;;;;;5006370;28;20213;-74
2021/12/28 14:26:13;;;;;;;1.30;1.20;;;;;;;;;;4988843;28;20181;-75
2021/12/28 14:28:41;;;;;;;0.73;0.70;;;;;;;;;;5006961;28;20272;-74
2021/12/28 14:31:13;;;;;;;0.60;0.60;;;;;;;;;;4987362;28;20177;-75
2021/12/28 14:33:43;;;;;;;0.50;0.50;;;;;;;;;;4992469;28;20199;-75
2021/12/28 14:36:08;;;;;;;0.50;0.50;;;;;;;;;;4989558;28;20275;-75
2021/12/28 14:38:33;;;;;;;0.80;0.60;;;;;;;;;;4993161;28;20229;-74
2021/12/28 14:40:58;;;;;;;0.80;0.80;;;;;;;;;;4990055;28;20204;-75
2021/12/28 14:43:29;;;;;;;0.67;0.67;;;;;;;;;;4991229;28;20201;-75